sensor_id;sensor_type;location;lat;lon;timestamp;temperature;humidity
2729;DHT22;1372;47.956;7.830;2022-12-26T00:01:49;14.10;99.90
2729;DHT22;1372;47.956;7.830;2022-12-26T00:04:19;14.10;99.90
2729;DHT22;1372;47.956;7.830;2022-12-26T00:07:08;14.00;99.90
2729;DHT22;1372;47.956;7.830;2022-12-26T00:09:37;14.10;99.90
2729;DHT22;1372;47.956;7.830;2022-12-26T00:12:06;14.20;99.90
2729;DHT22;1372;47.956;7.830;2022-12-26T00:14:35;14.20;99.90
2729;DHT22;1372;47.956;7.830;2022-12-26T00:17:04;14.20;99.90
2729;DHT22;1372;47.956;7.830;2022-12-26T00:19:32;14.20;99.90
2729;DHT22;1372;47.956;7.830;2022-12-26T00:22:01;14.10;99.90
2729;DHT22;1372;47.956;7.830;2022-12-26T00:24:30;14.20;99.90
2729;DHT22;1372;47.956;7.830;2022-12-26T00:27:00;14.10;99.90
2729;DHT22;1372;47.956;7.830;2022-12-26T00:29:29;14.10;99.90
2729;DHT22;1372;47.956;7.830;2022-12-26T00:31:57;14.20;99.90
2729;DHT22;1372;47.956;7.830;2022-12-26T00:34:26;14.30;99.90
2729;DHT22;1372;47.956;7.830;2022-12-26T00:36:55;14.40;99.90
2729;DHT22;1372;47.956;7.830;2022-12-26T00:39:24;14.50;99.90
2729;DHT22;1372;47.956;7.830;2022-12-26T00:41:52;14.40;99.90
2729;DHT22;1372;47.956;7.830;2022-12-26T00:44:22;14.40;99.90
2729;DHT22;1372;47.956;7.830;2022-12-26T00:47:01;14.40;99.90
2729;DHT22;1372;47.956;7.830;2022-12-26T00:49:30;14.30;99.90
2729;DHT22;1372;47.956;7.830;2022-12-26T00:52:19;14.40;99.90
2729;DHT22;1372;47.956;7.830;2022-12-26T00:54:50;14.50;99.90
2729;DHT22;1372;47.956;7.830;2022-12-26T00:57:19;14.40;99.90
2729;DHT22;1372;47.956;7.830;2022-12-26T00:59:49;14.40;99.90
2729;DHT22;1372;47.956;7.830;2022-12-26T01:02:18;14.40;99.90
2729;DHT22;1372;47.956;7.830;2022-12-26T01:05:07;14.40;99.90
2729;DHT22;1372;47.956;7.830;2022-12-26T01:07:38;14.50;99.90
2729;DHT22;1372;47.956;7.830;2022-12-26T01:10:28;14.60;99.90
2729;DHT22;1372;47.956;7.830;2022-12-26T01:12:59;14.60;99.90
2729;DHT22;1372;47.956;7.830;2022-12-26T01:15:29;14.50;99.90
2729;DHT22;1372;47.956;7.830;2022-12-26T01:17:58;14.50;99.90
2729;DHT22;1372;47.956;7.830;2022-12-26T01:20:27;14.50;99.90
2729;DHT22;1372;47.956;7.830;2022-12-26T01:22:55;14.50;99.90
2729;DHT22;1372;47.956;7.830;2022-12-26T01:25:24;14.50;99.90
2729;DHT22;1372;47.956;7.830;2022-12-26T01:27:53;14.40;99.90
2729;DHT22;1372;47.956;7.830;2022-12-26T01:30:22;14.40;99.90
2729;DHT22;1372;47.956;7.830;2022-12-26T01:32:52;14.40;99.90
2729;DHT22;1372;47.956;7.830;2022-12-26T01:35:21;14.30;99.90
2729;DHT22;1372;47.956;7.830;2022-12-26T01:37:52;14.30;99.90
2729;DHT22;1372;47.956;7.830;2022-12-26T01:40:22;14.20;99.90
2729;DHT22;1372;47.956;7.830;2022-12-26T01:42:50;14.10;99.90
2729;DHT22;1372;47.956;7.830;2022-12-26T01:45:27;14.20;99.90
2729;DHT22;1372;47.956;7.830;2022-12-26T01:48:03;14.30;99.90
2729;DHT22;1372;47.956;7.830;2022-12-26T01:50:40;14.30;99.90
2729;DHT22;1372;47.956;7.830;2022-12-26T01:53:13;14.30;99.90
2729;DHT22;1372;47.956;7.830;2022-12-26T01:55:48;14.30;99.90
2729;DHT22;1372;47.956;7.830;2022-12-26T01:58:26;14.30;99.90
2729;DHT22;1372;47.956;7.830;2022-12-26T02:00:57;14.20;99.90
2729;DHT22;1372;47.956;7.830;2022-12-26T02:03:27;14.20;99.90
2729;DHT22;1372;47.956;7.830;2022-12-26T02:06:14;14.10;99.90
2729;DHT22;1372;47.956;7.830;2022-12-26T02:08:45;14.00;99.90
2729;DHT22;1372;47.956;7.830;2022-12-26T02:11:16;14.00;99.90
2729;DHT22;1372;47.956;7.830;2022-12-26T02:13:47;13.90;99.90
2729;DHT22;1372;47.956;7.830;2022-12-26T02:16:17;13.90;99.90
2729;DHT22;1372;47.956;7.830;2022-12-26T02:18:47;14.00;99.90
2729;DHT22;1372;47.956;7.830;2022-12-26T02:21:41;14.00;99.90
2729;DHT22;1372;47.956;7.830;2022-12-26T02:24:59;14.00;99.90
2729;DHT22;1372;47.956;7.830;2022-12-26T02:28:17;14.00;99.90
2729;DHT22;1372;47.956;7.830;2022-12-26T02:31:03;14.00;99.90
2729;DHT22;1372;47.956;7.830;2022-12-26T02:33:53;14.00;99.90
2729;DHT22;1372;47.956;7.830;2022-12-26T02:36:41;14.00;99.90
2729;DHT22;1372;47.956;7.830;2022-12-26T02:39:27;14.00;99.90
2729;DHT22;1372;47.956;7.830;2022-12-26T02:42:19;14.00;99.90
2729;DHT22;1372;47.956;7.830;2022-12-26T02:44:56;14.00;99.90
2729;DHT22;1372;47.956;7.830;2022-12-26T02:47:52;14.00;99.90
2729;DHT22;1372;47.956;7.830;2022-12-26T02:50:29;14.00;99.90
2729;DHT22;1372;47.956;7.830;2022-12-26T02:53:27;13.90;99.90
2729;DHT22;1372;47.956;7.830;2022-12-26T02:56:21;14.00;99.90
2729;DHT22;1372;47.956;7.830;2022-12-26T02:59:15;14.00;99.90
2729;DHT22;1372;47.956;7.830;2022-12-26T03:02:27;14.00;99.90
2729;DHT22;1372;47.956;7.830;2022-12-26T03:05:21;13.90;99.90
2729;DHT22;1372;47.956;7.830;2022-12-26T03:08:16;14.00;99.90
2729;DHT22;1372;47.956;7.830;2022-12-26T03:11:05;14.00;99.90
2729;DHT22;1372;47.956;7.830;2022-12-26T03:13:53;14.00;99.90
2729;DHT22;1372;47.956;7.830;2022-12-26T03:16:24;14.20;99.90
2729;DHT22;1372;47.956;7.830;2022-12-26T03:19:11;14.10;99.90
2729;DHT22;1372;47.956;7.830;2022-12-26T03:21:44;14.10;99.90
2729;DHT22;1372;47.956;7.830;2022-12-26T03:24:16;14.10;99.90
2729;DHT22;1372;47.956;7.830;2022-12-26T03:26:49;14.10;99.90
2729;DHT22;1372;47.956;7.830;2022-12-26T03:29:20;14.10;99.90
2729;DHT22;1372;47.956;7.830;2022-12-26T03:32:10;14.10;99.90
2729;DHT22;1372;47.956;7.830;2022-12-26T03:34:40;14.10;99.90
2729;DHT22;1372;47.956;7.830;2022-12-26T03:37:32;14.10;99.90
2729;DHT22;1372;47.956;7.830;2022-12-26T03:40:29;14.20;99.90
2729;DHT22;1372;47.956;7.830;2022-12-26T03:43:30;14.30;99.90
2729;DHT22;1372;47.956;7.830;2022-12-26T03:46:36;14.30;99.90
2729;DHT22;1372;47.956;7.830;2022-12-26T03:49:30;14.30;99.90
2729;DHT22;1372;47.956;7.830;2022-12-26T03:52:25;14.30;99.90
2729;DHT22;1372;47.956;7.830;2022-12-26T03:55:25;14.30;99.90
2729;DHT22;1372;47.956;7.830;2022-12-26T03:58:21;14.30;99.90
2729;DHT22;1372;47.956;7.830;2022-12-26T04:01:20;14.30;99.90
2729;DHT22;1372;47.956;7.830;2022-12-26T04:04:13;14.30;99.90
2729;DHT22;1372;47.956;7.830;2022-12-26T04:07:04;14.30;99.90
2729;DHT22;1372;47.956;7.830;2022-12-26T04:09:59;14.30;99.90
2729;DHT22;1372;47.956;7.830;2022-12-26T04:12:49;14.30;99.90
2729;DHT22;1372;47.956;7.830;2022-12-26T04:15:58;14.30;99.90
2729;DHT22;1372;47.956;7.830;2022-12-26T04:18:51;14.40;99.90
2729;DHT22;1372;47.956;7.830;2022-12-26T04:21:45;14.40;99.90
2729;DHT22;1372;47.956;7.830;2022-12-26T04:24:34;14.40;99.90
2729;DHT22;1372;47.956;7.830;2022-12-26T04:27:26;14.50;99.90
2729;DHT22;1372;47.956;7.830;2022-12-26T04:30:13;14.60;99.90
2729;DHT22;1372;47.956;7.830;2022-12-26T04:33:06;14.70;99.90
2729;DHT22;1372;47.956;7.830;2022-12-26T04:36:00;14.70;99.90
2729;DHT22;1372;47.956;7.830;2022-12-26T04:38:53;14.70;99.90
2729;DHT22;1372;47.956;7.830;2022-12-26T04:41:43;14.60;99.90
2729;DHT22;1372;47.956;7.830;2022-12-26T04:44:34;14.60;99.90
2729;DHT22;1372;47.956;7.830;2022-12-26T04:47:04;14.60;99.90
2729;DHT22;1372;47.956;7.830;2022-12-26T04:49:41;14.60;99.90
2729;DHT22;1372;47.956;7.830;2022-12-26T04:52:28;14.60;99.90
2729;DHT22;1372;47.956;7.830;2022-12-26T04:55:17;14.50;99.90
2729;DHT22;1372;47.956;7.830;2022-12-26T04:57:46;14.50;99.90
2729;DHT22;1372;47.956;7.830;2022-12-26T05:00:17;14.60;99.90
2729;DHT22;1372;47.956;7.830;2022-12-26T05:02:48;14.60;99.90
2729;DHT22;1372;47.956;7.830;2022-12-26T05:05:40;14.60;99.90
2729;DHT22;1372;47.956;7.830;2022-12-26T05:08:33;14.60;99.90
2729;DHT22;1372;47.956;7.830;2022-12-26T05:11:21;14.70;99.90
2729;DHT22;1372;47.956;7.830;2022-12-26T05:13:54;14.70;99.90
2729;DHT22;1372;47.956;7.830;2022-12-26T05:16:26;14.70;99.90
2729;DHT22;1372;47.956;7.830;2022-12-26T05:19:14;14.70;99.90
2729;DHT22;1372;47.956;7.830;2022-12-26T05:22:02;14.70;99.90
2729;DHT22;1372;47.956;7.830;2022-12-26T05:24:51;14.70;99.90
2729;DHT22;1372;47.956;7.830;2022-12-26T05:27:40;14.60;99.90
2729;DHT22;1372;47.956;7.830;2022-12-26T05:30:29;14.50;99.90
2729;DHT22;1372;47.956;7.830;2022-12-26T05:32:59;14.30;99.90
2729;DHT22;1372;47.956;7.830;2022-12-26T05:35:46;14.30;99.90
2729;DHT22;1372;47.956;7.830;2022-12-26T05:38:14;14.30;99.90
2729;DHT22;1372;47.956;7.830;2022-12-26T05:40:42;14.30;99.90
2729;DHT22;1372;47.956;7.830;2022-12-26T05:43:11;14.30;99.90
2729;DHT22;1372;47.956;7.830;2022-12-26T05:45:42;14.30;99.90
2729;DHT22;1372;47.956;7.830;2022-12-26T05:48:12;14.30;99.90
2729;DHT22;1372;47.956;7.830;2022-12-26T05:50:40;14.20;99.90
2729;DHT22;1372;47.956;7.830;2022-12-26T05:53:09;14.20;99.90
2729;DHT22;1372;47.956;7.830;2022-12-26T05:55:38;14.20;99.90
2729;DHT22;1372;47.956;7.830;2022-12-26T05:58:06;14.30;99.90
2729;DHT22;1372;47.956;7.830;2022-12-26T06:00:35;14.20;99.90
2729;DHT22;1372;47.956;7.830;2022-12-26T06:03:04;14.20;99.90
2729;DHT22;1372;47.956;7.830;2022-12-26T06:05:34;14.20;99.90
2729;DHT22;1372;47.956;7.830;2022-12-26T06:08:05;14.30;99.90
2729;DHT22;1372;47.956;7.830;2022-12-26T06:10:36;14.40;99.90
2729;DHT22;1372;47.956;7.830;2022-12-26T06:13:05;14.50;99.90
2729;DHT22;1372;47.956;7.830;2022-12-26T06:15:37;14.50;99.90
2729;DHT22;1372;47.956;7.830;2022-12-26T06:18:06;14.60;99.90
2729;DHT22;1372;47.956;7.830;2022-12-26T06:20:38;14.70;99.90
2729;DHT22;1372;47.956;7.830;2022-12-26T06:23:07;14.70;99.90
2729;DHT22;1372;47.956;7.830;2022-12-26T06:25:35;14.70;99.90
2729;DHT22;1372;47.956;7.830;2022-12-26T06:28:04;14.90;99.90
2729;DHT22;1372;47.956;7.830;2022-12-26T06:30:33;14.90;99.90
2729;DHT22;1372;47.956;7.830;2022-12-26T06:33:04;14.80;99.90
2729;DHT22;1372;47.956;7.830;2022-12-26T06:35:33;14.80;99.90
2729;DHT22;1372;47.956;7.830;2022-12-26T06:38:03;14.80;99.90
2729;DHT22;1372;47.956;7.830;2022-12-26T06:40:32;14.80;99.90
2729;DHT22;1372;47.956;7.830;2022-12-26T06:43:00;14.90;99.90
2729;DHT22;1372;47.956;7.830;2022-12-26T06:45:30;14.90;99.90
2729;DHT22;1372;47.956;7.830;2022-12-26T06:47:59;14.90;99.90
2729;DHT22;1372;47.956;7.830;2022-12-26T06:50:28;14.80;99.90
2729;DHT22;1372;47.956;7.830;2022-12-26T06:52:57;14.80;99.90
2729;DHT22;1372;47.956;7.830;2022-12-26T06:55:27;14.80;99.90
2729;DHT22;1372;47.956;7.830;2022-12-26T06:57:58;14.80;99.90
2729;DHT22;1372;47.956;7.830;2022-12-26T07:00:27;14.80;99.90
2729;DHT22;1372;47.956;7.830;2022-12-26T07:02:57;14.90;99.90
2729;DHT22;1372;47.956;7.830;2022-12-26T07:05:25;15.00;99.90
2729;DHT22;1372;47.956;7.830;2022-12-26T07:07:54;15.00;99.90
2729;DHT22;1372;47.956;7.830;2022-12-26T07:10:23;15.00;99.90
2729;DHT22;1372;47.956;7.830;2022-12-26T07:12:53;15.00;99.90
2729;DHT22;1372;47.956;7.830;2022-12-26T07:15:24;15.00;99.90
2729;DHT22;1372;47.956;7.830;2022-12-26T07:17:53;15.20;99.90
2729;DHT22;1372;47.956;7.830;2022-12-26T07:20:24;15.30;99.90
2729;DHT22;1372;47.956;7.830;2022-12-26T07:22:53;15.30;99.90
2729;DHT22;1372;47.956;7.830;2022-12-26T07:25:25;15.30;99.90
2729;DHT22;1372;47.956;7.830;2022-12-26T07:27:55;15.20;99.90
2729;DHT22;1372;47.956;7.830;2022-12-26T07:30:24;15.10;99.90
2729;DHT22;1372;47.956;7.830;2022-12-26T07:32:52;15.10;99.90
2729;DHT22;1372;47.956;7.830;2022-12-26T07:35:21;15.10;99.90
2729;DHT22;1372;47.956;7.830;2022-12-26T07:37:52;15.20;99.90
2729;DHT22;1372;47.956;7.830;2022-12-26T07:40:22;15.20;99.90
2729;DHT22;1372;47.956;7.830;2022-12-26T07:42:52;15.30;99.90
2729;DHT22;1372;47.956;7.830;2022-12-26T07:45:22;15.20;99.90
2729;DHT22;1372;47.956;7.830;2022-12-26T07:47:52;15.10;99.90
2729;DHT22;1372;47.956;7.830;2022-12-26T07:50:24;15.00;99.90
2729;DHT22;1372;47.956;7.830;2022-12-26T07:52:56;14.90;99.90
2729;DHT22;1372;47.956;7.830;2022-12-26T07:55:26;14.90;99.90
2729;DHT22;1372;47.956;7.830;2022-12-26T07:57:56;14.90;99.90
2729;DHT22;1372;47.956;7.830;2022-12-26T08:00:26;15.00;99.90
2729;DHT22;1372;47.956;7.830;2022-12-26T08:02:55;15.00;99.90
2729;DHT22;1372;47.956;7.830;2022-12-26T08:05:32;14.90;99.90
2729;DHT22;1372;47.956;7.830;2022-12-26T08:08:01;14.90;99.90
2729;DHT22;1372;47.956;7.830;2022-12-26T08:10:30;14.70;99.90
2729;DHT22;1372;47.956;7.830;2022-12-26T08:12:59;14.60;99.90
2729;DHT22;1372;47.956;7.830;2022-12-26T08:15:31;14.30;99.90
2729;DHT22;1372;47.956;7.830;2022-12-26T08:18:00;14.00;99.90
2729;DHT22;1372;47.956;7.830;2022-12-26T08:20:29;13.70;99.90
2729;DHT22;1372;47.956;7.830;2022-12-26T08:22:58;13.40;99.90
2729;DHT22;1372;47.956;7.830;2022-12-26T08:25:27;13.20;99.90
2729;DHT22;1372;47.956;7.830;2022-12-26T08:27:55;13.20;99.90
2729;DHT22;1372;47.956;7.830;2022-12-26T08:30:26;13.20;99.90
2729;DHT22;1372;47.956;7.830;2022-12-26T08:32:56;13.10;99.90
2729;DHT22;1372;47.956;7.830;2022-12-26T08:35:24;13.00;99.90
2729;DHT22;1372;47.956;7.830;2022-12-26T08:37:53;12.90;99.90
2729;DHT22;1372;47.956;7.830;2022-12-26T08:40:21;12.90;99.90
2729;DHT22;1372;47.956;7.830;2022-12-26T08:43:08;12.90;99.90
2729;DHT22;1372;47.956;7.830;2022-12-26T08:45:58;12.80;99.90
2729;DHT22;1372;47.956;7.830;2022-12-26T08:48:29;12.80;99.90
2729;DHT22;1372;47.956;7.830;2022-12-26T08:51:00;12.70;99.90
2729;DHT22;1372;47.956;7.830;2022-12-26T08:53:32;12.70;99.90
2729;DHT22;1372;47.956;7.830;2022-12-26T08:56:04;12.70;99.90
2729;DHT22;1372;47.956;7.830;2022-12-26T08:58:34;12.80;99.90
2729;DHT22;1372;47.956;7.830;2022-12-26T09:01:11;12.90;99.90
2729;DHT22;1372;47.956;7.830;2022-12-26T09:03:42;12.90;99.90
2729;DHT22;1372;47.956;7.830;2022-12-26T09:06:12;12.90;99.90
2729;DHT22;1372;47.956;7.830;2022-12-26T09:08:44;12.90;99.90
2729;DHT22;1372;47.956;7.830;2022-12-26T09:11:15;12.80;99.90
2729;DHT22;1372;47.956;7.830;2022-12-26T09:13:46;12.70;99.90
2729;DHT22;1372;47.956;7.830;2022-12-26T09:16:17;12.70;99.90
2729;DHT22;1372;47.956;7.830;2022-12-26T09:18:51;12.80;99.90
2729;DHT22;1372;47.956;7.830;2022-12-26T09:21:22;12.80;99.90
2729;DHT22;1372;47.956;7.830;2022-12-26T09:23:55;12.80;99.90
2729;DHT22;1372;47.956;7.830;2022-12-26T09:26:25;12.80;99.90
2729;DHT22;1372;47.956;7.830;2022-12-26T09:28:56;12.70;99.90
2729;DHT22;1372;47.956;7.830;2022-12-26T09:31:26;12.80;99.90
2729;DHT22;1372;47.956;7.830;2022-12-26T09:34:00;12.80;99.90
2729;DHT22;1372;47.956;7.830;2022-12-26T09:36:32;12.80;99.90
2729;DHT22;1372;47.956;7.830;2022-12-26T09:39:04;12.80;99.90
2729;DHT22;1372;47.956;7.830;2022-12-26T09:41:50;12.70;99.90
2729;DHT22;1372;47.956;7.830;2022-12-26T09:44:27;12.70;99.90
2729;DHT22;1372;47.956;7.830;2022-12-26T09:47:06;12.80;99.90
2729;DHT22;1372;47.956;7.830;2022-12-26T09:49:53;12.70;99.90
2729;DHT22;1372;47.956;7.830;2022-12-26T09:52:32;12.70;99.90
2729;DHT22;1372;47.956;7.830;2022-12-26T09:58:24;12.60;99.90
2729;DHT22;1372;47.956;7.830;2022-12-26T10:00:58;12.60;99.90
2729;DHT22;1372;47.956;7.830;2022-12-26T10:03:37;12.60;99.90
2729;DHT22;1372;47.956;7.830;2022-12-26T10:06:14;12.60;99.90
2729;DHT22;1372;47.956;7.830;2022-12-26T10:09:00;12.50;99.90
2729;DHT22;1372;47.956;7.830;2022-12-26T10:11:57;12.50;99.90
2729;DHT22;1372;47.956;7.830;2022-12-26T10:14:50;12.50;99.90
2729;DHT22;1372;47.956;7.830;2022-12-26T10:17:28;12.60;99.90
2729;DHT22;1372;47.956;7.830;2022-12-26T10:20:14;12.70;99.90
2729;DHT22;1372;47.956;7.830;2022-12-26T10:23:19;12.80;99.90
2729;DHT22;1372;47.956;7.830;2022-12-26T10:26:07;12.50;99.90
2729;DHT22;1372;47.956;7.830;2022-12-26T10:28:46;12.30;99.90
2729;DHT22;1372;47.956;7.830;2022-12-26T10:31:23;12.30;99.90
2729;DHT22;1372;47.956;7.830;2022-12-26T10:33:57;12.20;99.90
2729;DHT22;1372;47.956;7.830;2022-12-26T10:36:33;12.10;99.90
2729;DHT22;1372;47.956;7.830;2022-12-26T10:39:14;12.20;99.90
2729;DHT22;1372;47.956;7.830;2022-12-26T10:41:49;12.30;99.90
2729;DHT22;1372;47.956;7.830;2022-12-26T10:44:19;12.30;99.90
2729;DHT22;1372;47.956;7.830;2022-12-26T10:47:06;12.20;99.90
2729;DHT22;1372;47.956;7.830;2022-12-26T10:49:42;12.20;99.90
2729;DHT22;1372;47.956;7.830;2022-12-26T10:52:13;12.10;99.90
2729;DHT22;1372;47.956;7.830;2022-12-26T10:54:49;12.10;99.90
2729;DHT22;1372;47.956;7.830;2022-12-26T10:57:43;12.00;99.90
2729;DHT22;1372;47.956;7.830;2022-12-26T11:00:17;12.00;99.90
2729;DHT22;1372;47.956;7.830;2022-12-26T11:03:02;11.90;99.90
2729;DHT22;1372;47.956;7.830;2022-12-26T11:05:37;12.00;99.90
2729;DHT22;1372;47.956;7.830;2022-12-26T11:08:31;12.00;99.90
2729;DHT22;1372;47.956;7.830;2022-12-26T11:11:19;12.00;99.90
2729;DHT22;1372;47.956;7.830;2022-12-26T11:13:52;12.10;99.90
2729;DHT22;1372;47.956;7.830;2022-12-26T11:16:32;12.10;99.90
2729;DHT22;1372;47.956;7.830;2022-12-26T11:19:03;12.10;99.90
2729;DHT22;1372;47.956;7.830;2022-12-26T11:21:33;12.10;99.90
2729;DHT22;1372;47.956;7.830;2022-12-26T11:24:16;12.10;99.90
2729;DHT22;1372;47.956;7.830;2022-12-26T11:27:28;12.10;99.90
2729;DHT22;1372;47.956;7.830;2022-12-26T11:30:14;12.00;99.90
2729;DHT22;1372;47.956;7.830;2022-12-26T11:32:50;11.90;99.90
2729;DHT22;1372;47.956;7.830;2022-12-26T11:35:47;11.90;99.90
2729;DHT22;1372;47.956;7.830;2022-12-26T11:38:19;11.80;99.90
2729;DHT22;1372;47.956;7.830;2022-12-26T11:41:16;11.90;99.90
2729;DHT22;1372;47.956;7.830;2022-12-26T11:44:29;11.80;99.90
2729;DHT22;1372;47.956;7.830;2022-12-26T11:47:00;11.80;99.90
2729;DHT22;1372;47.956;7.830;2022-12-26T11:49:38;11.80;99.90
2729;DHT22;1372;47.956;7.830;2022-12-26T11:52:30;11.80;99.90
2729;DHT22;1372;47.956;7.830;2022-12-26T11:55:28;11.80;99.90
2729;DHT22;1372;47.956;7.830;2022-12-26T11:58:14;11.80;99.90
2729;DHT22;1372;47.956;7.830;2022-12-26T12:03:48;11.70;99.90
2729;DHT22;1372;47.956;7.830;2022-12-26T12:06:39;11.70;99.90
2729;DHT22;1372;47.956;7.830;2022-12-26T12:09:24;11.70;99.90
2729;DHT22;1372;47.956;7.830;2022-12-26T12:12:14;11.70;99.90
2729;DHT22;1372;47.956;7.830;2022-12-26T12:14:57;11.60;99.90
2729;DHT22;1372;47.956;7.830;2022-12-26T12:17:36;11.70;99.90
2729;DHT22;1372;47.956;7.830;2022-12-26T12:20:25;11.70;99.90
2729;DHT22;1372;47.956;7.830;2022-12-26T12:23:16;11.80;99.90
2729;DHT22;1372;47.956;7.830;2022-12-26T12:26:00;11.80;99.90
2729;DHT22;1372;47.956;7.830;2022-12-26T12:28:53;11.90;99.90
2729;DHT22;1372;47.956;7.830;2022-12-26T12:31:35;11.90;99.90
2729;DHT22;1372;47.956;7.830;2022-12-26T12:34:21;12.00;99.90
2729;DHT22;1372;47.956;7.830;2022-12-26T12:37:04;11.90;99.90
2729;DHT22;1372;47.956;7.830;2022-12-26T12:39:54;11.90;99.90
2729;DHT22;1372;47.956;7.830;2022-12-26T12:42:37;11.80;99.90
2729;DHT22;1372;47.956;7.830;2022-12-26T12:45:30;11.80;99.90
2729;DHT22;1372;47.956;7.830;2022-12-26T12:48:19;11.70;99.90
2729;DHT22;1372;47.956;7.830;2022-12-26T12:50:59;11.90;99.90
2729;DHT22;1372;47.956;7.830;2022-12-26T12:53:48;12.00;99.90
2729;DHT22;1372;47.956;7.830;2022-12-26T12:56:32;12.00;99.90
2729;DHT22;1372;47.956;7.830;2022-12-26T12:59:15;12.00;99.90
2729;DHT22;1372;47.956;7.830;2022-12-26T13:01:51;12.10;99.90
2729;DHT22;1372;47.956;7.830;2022-12-26T13:04:42;12.20;99.90
2729;DHT22;1372;47.956;7.830;2022-12-26T13:07:20;12.40;99.90
2729;DHT22;1372;47.956;7.830;2022-12-26T13:09:55;12.30;99.90
2729;DHT22;1372;47.956;7.830;2022-12-26T13:12:26;12.10;99.90
2729;DHT22;1372;47.956;7.830;2022-12-26T13:15:04;12.20;99.90
2729;DHT22;1372;47.956;7.830;2022-12-26T13:17:51;12.10;99.90
2729;DHT22;1372;47.956;7.830;2022-12-26T13:20:27;12.00;99.90
2729;DHT22;1372;47.956;7.830;2022-12-26T13:23:04;12.00;99.90
2729;DHT22;1372;47.956;7.830;2022-12-26T13:26:02;11.90;99.90
2729;DHT22;1372;47.956;7.830;2022-12-26T13:28:47;11.90;99.90
2729;DHT22;1372;47.956;7.830;2022-12-26T13:31:20;11.90;99.90
2729;DHT22;1372;47.956;7.830;2022-12-26T13:33:49;12.00;99.90
2729;DHT22;1372;47.956;7.830;2022-12-26T13:36:35;12.00;99.90
2729;DHT22;1372;47.956;7.830;2022-12-26T13:39:38;11.90;99.90
2729;DHT22;1372;47.956;7.830;2022-12-26T13:42:30;11.90;99.90
2729;DHT22;1372;47.956;7.830;2022-12-26T13:51:59;11.90;99.90
2729;DHT22;1372;47.956;7.830;2022-12-26T13:55:27;12.00;99.90
2729;DHT22;1372;47.956;7.830;2022-12-26T13:58:40;12.00;99.90
2729;DHT22;1372;47.956;7.830;2022-12-26T14:01:37;12.00;99.90
2729;DHT22;1372;47.956;7.830;2022-12-26T14:04:37;12.10;99.90
2729;DHT22;1372;47.956;7.830;2022-12-26T14:07:23;12.10;99.90
2729;DHT22;1372;47.956;7.830;2022-12-26T14:10:20;12.00;99.90
2729;DHT22;1372;47.956;7.830;2022-12-26T14:13:45;12.00;99.90
2729;DHT22;1372;47.956;7.830;2022-12-26T14:17:18;12.10;99.90
2729;DHT22;1372;47.956;7.830;2022-12-26T14:20:06;12.10;99.90
2729;DHT22;1372;47.956;7.830;2022-12-26T14:22:45;12.10;99.90
2729;DHT22;1372;47.956;7.830;2022-12-26T14:25:26;12.10;99.90
2729;DHT22;1372;47.956;7.830;2022-12-26T14:28:11;12.10;99.90
2729;DHT22;1372;47.956;7.830;2022-12-26T14:31:03;12.10;99.90
2729;DHT22;1372;47.956;7.830;2022-12-26T14:33:48;12.10;99.90
2729;DHT22;1372;47.956;7.830;2022-12-26T14:36:34;12.10;99.90
2729;DHT22;1372;47.956;7.830;2022-12-26T14:39:21;12.20;99.90
2729;DHT22;1372;47.956;7.830;2022-12-26T14:42:20;12.30;99.90
2729;DHT22;1372;47.956;7.830;2022-12-26T14:45:41;12.20;99.90
2729;DHT22;1372;47.956;7.830;2022-12-26T14:51:30;12.20;99.90
2729;DHT22;1372;47.956;7.830;2022-12-26T14:54:38;12.20;99.90
2729;DHT22;1372;47.956;7.830;2022-12-26T14:57:46;12.40;99.90
2729;DHT22;1372;47.956;7.830;2022-12-26T15:00:30;12.40;99.90
2729;DHT22;1372;47.956;7.830;2022-12-26T15:10:24;12.40;99.90
2729;DHT22;1372;47.956;7.830;2022-12-26T15:13:32;12.40;99.90
2729;DHT22;1372;47.956;7.830;2022-12-26T15:16:33;12.40;99.90
2729;DHT22;1372;47.956;7.830;2022-12-26T15:19:42;12.30;99.90
2729;DHT22;1372;47.956;7.830;2022-12-26T15:23:06;12.30;99.90
2729;DHT22;1372;47.956;7.830;2022-12-26T15:29:50;12.50;99.90
2729;DHT22;1372;47.956;7.830;2022-12-26T15:32:34;12.40;99.90
2729;DHT22;1372;47.956;7.830;2022-12-26T15:35:18;12.30;99.90
2729;DHT22;1372;47.956;7.830;2022-12-26T15:38:05;12.40;99.90
2729;DHT22;1372;47.956;7.830;2022-12-26T15:40:44;12.40;99.90
2729;DHT22;1372;47.956;7.830;2022-12-26T15:43:32;12.30;99.90
2729;DHT22;1372;47.956;7.830;2022-12-26T15:46:16;12.40;99.90
2729;DHT22;1372;47.956;7.830;2022-12-26T15:49:05;12.40;99.90
2729;DHT22;1372;47.956;7.830;2022-12-26T15:52:00;12.40;99.90
2729;DHT22;1372;47.956;7.830;2022-12-26T15:57:56;12.30;99.90
2729;DHT22;1372;47.956;7.830;2022-12-26T16:00:29;12.30;99.90
2729;DHT22;1372;47.956;7.830;2022-12-26T16:03:31;12.30;99.90
2729;DHT22;1372;47.956;7.830;2022-12-26T16:06:25;12.30;99.90
2729;DHT22;1372;47.956;7.830;2022-12-26T16:09:12;12.30;99.90
2729;DHT22;1372;47.956;7.830;2022-12-26T16:11:51;12.30;99.90
2729;DHT22;1372;47.956;7.830;2022-12-26T16:14:27;12.40;99.90
2729;DHT22;1372;47.956;7.830;2022-12-26T16:21:32;12.30;99.90
2729;DHT22;1372;47.956;7.830;2022-12-26T16:29:18;12.40;99.90
2729;DHT22;1372;47.956;7.830;2022-12-26T16:35:52;12.40;99.90
2729;DHT22;1372;47.956;7.830;2022-12-26T16:38:28;12.40;99.90
2729;DHT22;1372;47.956;7.830;2022-12-26T16:41:03;12.40;99.90
2729;DHT22;1372;47.956;7.830;2022-12-26T16:43:35;12.40;99.90
2729;DHT22;1372;47.956;7.830;2022-12-26T16:46:05;12.40;99.90
2729;DHT22;1372;47.956;7.830;2022-12-26T16:48:41;12.40;99.90
2729;DHT22;1372;47.956;7.830;2022-12-26T16:51:37;12.40;99.90
2729;DHT22;1372;47.956;7.830;2022-12-26T16:54:23;12.40;99.90
2729;DHT22;1372;47.956;7.830;2022-12-26T16:57:03;12.50;99.90
2729;DHT22;1372;47.956;7.830;2022-12-26T16:59:50;12.60;99.90
2729;DHT22;1372;47.956;7.830;2022-12-26T17:02:24;12.60;99.90
2729;DHT22;1372;47.956;7.830;2022-12-26T17:05:00;12.60;99.90
2729;DHT22;1372;47.956;7.830;2022-12-26T17:07:31;12.60;99.90
2729;DHT22;1372;47.956;7.830;2022-12-26T17:10:04;12.70;99.90
2729;DHT22;1372;47.956;7.830;2022-12-26T17:12:41;12.60;99.90
2729;DHT22;1372;47.956;7.830;2022-12-26T17:15:19;12.60;99.90
2729;DHT22;1372;47.956;7.830;2022-12-26T17:17:49;12.60;99.90
2729;DHT22;1372;47.956;7.830;2022-12-26T17:20:41;12.50;99.90
2729;DHT22;1372;47.956;7.830;2022-12-26T17:23:32;12.50;99.90
2729;DHT22;1372;47.956;7.830;2022-12-26T17:26:20;12.60;99.90
2729;DHT22;1372;47.956;7.830;2022-12-26T17:28:52;12.50;99.90
2729;DHT22;1372;47.956;7.830;2022-12-26T17:31:29;12.50;99.90
2729;DHT22;1372;47.956;7.830;2022-12-26T17:34:13;12.50;99.90
2729;DHT22;1372;47.956;7.830;2022-12-26T17:36:45;12.50;99.90
2729;DHT22;1372;47.956;7.830;2022-12-26T17:39:34;12.50;99.90
2729;DHT22;1372;47.956;7.830;2022-12-26T17:42:05;12.50;99.90
2729;DHT22;1372;47.956;7.830;2022-12-26T17:44:46;12.60;99.90
2729;DHT22;1372;47.956;7.830;2022-12-26T17:47:20;12.60;99.90
2729;DHT22;1372;47.956;7.830;2022-12-26T17:49:59;12.60;99.90
2729;DHT22;1372;47.956;7.830;2022-12-26T17:52:28;12.70;99.90
2729;DHT22;1372;47.956;7.830;2022-12-26T17:54:57;12.60;99.90
2729;DHT22;1372;47.956;7.830;2022-12-26T17:57:28;12.60;99.90
2729;DHT22;1372;47.956;7.830;2022-12-26T17:59:58;12.60;99.90
2729;DHT22;1372;47.956;7.830;2022-12-26T18:02:27;12.70;99.90
2729;DHT22;1372;47.956;7.830;2022-12-26T18:04:55;12.70;99.90
2729;DHT22;1372;47.956;7.830;2022-12-26T18:07:24;12.70;99.90
2729;DHT22;1372;47.956;7.830;2022-12-26T18:09:58;12.60;99.90